createdAt,value
2016-09-26T00:00:10.247Z,0
2016-09-26T00:00:50.997Z,0
2016-09-26T00:01:31.740Z,0
2016-09-26T00:02:12.507Z,0
2016-09-26T00:02:53.268Z,0
2016-09-26T00:03:34.058Z,0
2016-09-26T00:04:14.748Z,0
2016-09-26T00:04:55.433Z,0
2016-09-26T00:05:36.145Z,0
2016-09-26T00:06:16.875Z,0
2016-09-26T00:06:57.601Z,0
2016-09-26T00:07:38.338Z,0
2016-09-26T00:08:19.098Z,0
2016-09-26T00:08:59.836Z,0
2016-09-26T00:09:40.586Z,0
2016-09-26T00:10:21.365Z,0
2016-09-26T00:11:02.064Z,0
2016-09-26T00:11:42.815Z,0
2016-09-26T00:12:23.588Z,0
2016-09-26T00:13:04.355Z,0
2016-09-26T00:13:45.099Z,0
2016-09-26T00:14:25.824Z,0
2016-09-26T00:15:06.554Z,0
2016-09-26T00:15:47.276Z,0
2016-09-26T00:16:28.030Z,0
2016-09-26T00:17:08.800Z,0
2016-09-26T00:17:49.501Z,0
2016-09-26T00:18:30.244Z,0
2016-09-26T00:19:11.077Z,0
2016-09-26T00:19:51.788Z,0
2016-09-26T00:20:32.552Z,0
2016-09-26T00:21:13.242Z,0
2016-09-26T00:21:53.977Z,0
2016-09-26T00:22:34.805Z,0
2016-09-26T00:23:15.560Z,0
2016-09-26T00:23:56.344Z,0
2016-09-26T00:24:37.092Z,0
2016-09-26T00:25:17.837Z,0
2016-09-26T00:25:58.581Z,0
2016-09-26T00:26:39.313Z,0
2016-09-26T00:27:19.976Z,0
2016-09-26T00:28:00.758Z,0
2016-09-26T00:28:41.469Z,0
2016-09-26T00:29:22.196Z,0
2016-09-26T00:30:02.924Z,0
2016-09-26T00:30:43.650Z,0
2016-09-26T00:31:24.382Z,0
2016-09-26T00:32:05.140Z,0
2016-09-26T00:32:45.856Z,0
2016-09-26T00:33:26.578Z,0
2016-09-26T00:34:07.560Z,0
2016-09-26T00:34:48.278Z,0
2016-09-26T00:35:29.018Z,0
2016-09-26T00:36:09.779Z,0
2016-09-26T00:36:51.282Z,0
2016-09-26T00:37:31.419Z,0
2016-09-26T00:38:12.175Z,0
2016-09-26T00:38:52.864Z,0
2016-09-26T00:39:33.589Z,0
2016-09-26T00:40:14.277Z,0
2016-09-26T00:40:54.987Z,0
2016-09-26T00:41:35.745Z,0
2016-09-26T00:42:16.435Z,0
2016-09-26T00:42:57.208Z,0
2016-09-26T00:43:38.010Z,0
2016-09-26T00:44:18.734Z,0
2016-09-26T00:44:59.551Z,0
2016-09-26T00:45:40.268Z,0
2016-09-26T00:46:21.025Z,0
2016-09-26T00:47:01.730Z,0
2016-09-26T00:47:42.527Z,0
2016-09-26T00:48:23.462Z,0
2016-09-26T00:49:04.239Z,0
2016-09-26T00:49:44.935Z,0
2016-09-26T00:50:25.684Z,0
2016-09-26T00:51:06.454Z,0
2016-09-26T00:51:47.166Z,0
2016-09-26T00:52:27.870Z,0
2016-09-26T00:53:08.631Z,0
2016-09-26T00:53:49.465Z,0
2016-09-26T00:54:30.174Z,0
2016-09-26T00:55:10.948Z,0
2016-09-26T00:55:51.731Z,0
2016-09-26T00:56:32.451Z,0
2016-09-26T00:57:13.187Z,0
2016-09-26T00:57:53.901Z,0
2016-09-26T00:58:34.682Z,0
2016-09-26T00:59:15.431Z,0
2016-09-26T00:59:56.294Z,0
2016-09-26T01:00:37.056Z,0
2016-09-26T01:01:17.732Z,0
2016-09-26T01:01:58.448Z,0
2016-09-26T01:02:39.169Z,0
2016-09-26T01:03:19.951Z,0
2016-09-26T01:04:00.728Z,0
2016-09-26T01:04:41.469Z,0
2016-09-26T01:05:22.203Z,0
2016-09-26T01:06:02.910Z,0
2016-09-26T01:06:43.635Z,0
2016-09-26T01:07:24.409Z,0
2016-09-26T01:08:05.151Z,0
2016-09-26T01:08:45.905Z,0
2016-09-26T01:09:26.643Z,0
2016-09-26T01:10:07.408Z,0
2016-09-26T01:10:48.176Z,0
2016-09-26T01:11:28.901Z,0
2016-09-26T01:12:09.627Z,0
2016-09-26T01:12:50.371Z,0
2016-09-26T01:13:31.185Z,0
2016-09-26T01:14:11.954Z,0
2016-09-26T01:14:52.702Z,0
2016-09-26T01:15:33.398Z,0
2016-09-26T01:16:14.161Z,0
2016-09-26T01:16:54.904Z,0
2016-09-26T01:17:35.684Z,0
2016-09-26T01:18:16.423Z,0
2016-09-26T01:18:57.229Z,0
2016-09-26T01:19:37.957Z,0
2016-09-26T01:20:18.762Z,0
2016-09-26T01:20:59.533Z,0
2016-09-26T01:21:40.282Z,0
2016-09-26T01:22:21.049Z,0
2016-09-26T01:23:01.866Z,0
2016-09-26T01:23:42.665Z,0
2016-09-26T01:24:23.368Z,0
2016-09-26T01:25:04.095Z,0
2016-09-26T01:25:44.842Z,0
2016-09-26T01:26:25.573Z,0
2016-09-26T01:27:06.438Z,0
2016-09-26T01:27:47.149Z,0
2016-09-26T01:28:27.853Z,0
2016-09-26T01:29:08.615Z,0
2016-09-26T01:29:49.301Z,0
2016-09-26T01:30:30.034Z,0
2016-09-26T01:31:10.735Z,0
2016-09-26T01:31:51.534Z,0
2016-09-26T01:32:32.250Z,0
2016-09-26T01:33:12.981Z,0
2016-09-26T01:33:53.754Z,0
2016-09-26T01:34:34.531Z,0
2016-09-26T01:35:15.241Z,0
2016-09-26T01:35:56.000Z,0
2016-09-26T01:36:36.787Z,0
2016-09-26T01:37:17.463Z,0
2016-09-26T01:37:58.163Z,0
2016-09-26T01:38:38.961Z,0
2016-09-26T01:39:19.734Z,0
2016-09-26T01:40:00.483Z,0
2016-09-26T01:40:41.245Z,0
2016-09-26T01:41:22.834Z,0
2016-09-26T01:42:02.830Z,0
2016-09-26T01:42:43.691Z,0
2016-09-26T01:43:24.527Z,0
2016-09-26T01:44:05.237Z,0
2016-09-26T01:44:46.017Z,0
2016-09-26T01:45:26.712Z,0
2016-09-26T01:46:07.430Z,0
2016-09-26T01:46:48.139Z,0
2016-09-26T01:47:28.895Z,0
2016-09-26T01:48:09.715Z,0
2016-09-26T01:48:50.420Z,0
2016-09-26T01:49:31.193Z,0
2016-09-26T01:50:11.934Z,0
2016-09-26T01:50:52.620Z,0
2016-09-26T01:51:33.420Z,0
2016-09-26T01:52:14.139Z,0
2016-09-26T01:52:54.857Z,0
2016-09-26T01:53:35.562Z,0
2016-09-26T01:54:16.304Z,0
2016-09-26T01:54:57.084Z,0
2016-09-26T01:55:37.864Z,0
2016-09-26T01:56:18.586Z,0
2016-09-26T01:56:59.323Z,0
2016-09-26T01:57:40.081Z,0
2016-09-26T01:58:20.851Z,0
2016-09-26T01:59:01.608Z,0
2016-09-26T01:59:42.275Z,0
2016-09-26T02:00:22.984Z,0
2016-09-26T02:01:03.742Z,0
2016-09-26T02:01:44.447Z,0
2016-09-26T02:02:25.295Z,0
2016-09-26T02:03:06.030Z,0
2016-09-26T02:03:46.785Z,0
2016-09-26T02:04:27.502Z,0
2016-09-26T02:05:08.308Z,0
2016-09-26T02:05:49.051Z,0
2016-09-26T02:06:29.787Z,0
2016-09-26T02:07:10.554Z,0
2016-09-26T02:07:51.304Z,0
2016-09-26T02:08:32.045Z,0
2016-09-26T02:09:12.797Z,0
2016-09-26T02:09:53.475Z,0
2016-09-26T02:10:34.226Z,0
2016-09-26T02:11:14.948Z,0
2016-09-26T02:11:55.697Z,0
2016-09-26T02:12:36.414Z,0
2016-09-26T02:13:17.160Z,0
2016-09-26T02:13:57.899Z,0
2016-09-26T02:14:38.662Z,0
2016-09-26T02:15:19.495Z,0
2016-09-26T02:16:00.261Z,0
2016-09-26T02:16:40.922Z,0
2016-09-26T02:17:21.703Z,0
2016-09-26T02:18:02.458Z,0
2016-09-26T02:18:43.241Z,0
2016-09-26T02:19:23.927Z,0
2016-09-26T02:20:04.716Z,0
2016-09-26T02:20:45.481Z,0
2016-09-26T02:21:26.158Z,0
2016-09-26T02:22:06.884Z,0
2016-09-26T02:22:47.636Z,0
2016-09-26T02:23:28.334Z,0
2016-09-26T02:24:09.054Z,0
2016-09-26T02:24:49.836Z,0
2016-09-26T02:25:30.569Z,0
2016-09-26T02:26:11.290Z,0
2016-09-26T02:26:52.012Z,0
2016-09-26T02:27:32.738Z,0
2016-09-26T02:28:13.460Z,0
2016-09-26T02:28:54.228Z,0
2016-09-26T02:29:34.947Z,0
2016-09-26T02:30:15.743Z,0
2016-09-26T02:30:56.453Z,0
2016-09-26T02:31:37.212Z,0
2016-09-26T02:32:17.939Z,0
2016-09-26T02:32:58.730Z,0
2016-09-26T02:33:39.511Z,0
2016-09-26T02:34:20.216Z,0
2016-09-26T02:35:00.946Z,0
2016-09-26T02:35:41.683Z,0
2016-09-26T02:36:22.447Z,0
2016-09-26T02:37:03.218Z,0
2016-09-26T02:37:43.986Z,0
2016-09-26T02:38:24.719Z,0
2016-09-26T02:39:05.470Z,0
2016-09-26T02:39:46.213Z,0
2016-09-26T02:40:26.894Z,0
2016-09-26T02:41:07.598Z,0
2016-09-26T02:41:48.377Z,0
2016-09-26T02:42:29.030Z,0
2016-09-26T02:43:09.802Z,0
2016-09-26T02:43:50.542Z,0
2016-09-26T02:44:31.300Z,0
2016-09-26T02:45:12.035Z,0
2016-09-26T02:45:52.732Z,0
2016-09-26T02:46:33.492Z,0
2016-09-26T02:47:14.201Z,0
2016-09-26T02:47:54.940Z,0
2016-09-26T02:48:35.676Z,0
2016-09-26T02:49:16.405Z,0
2016-09-26T02:49:57.171Z,0
2016-09-26T02:50:37.889Z,0
2016-09-26T02:51:18.662Z,0
2016-09-26T02:51:59.383Z,0
2016-09-26T02:52:40.149Z,0
2016-09-26T02:53:20.880Z,0
2016-09-26T02:54:01.579Z,0
2016-09-26T02:54:42.290Z,0
2016-09-26T02:55:23.025Z,0
2016-09-26T02:56:03.736Z,0
2016-09-26T02:56:44.464Z,0
2016-09-26T02:57:25.197Z,0
2016-09-26T02:58:05.975Z,0
2016-09-26T02:58:46.716Z,0
2016-09-26T02:59:27.465Z,0
2016-09-26T03:00:08.243Z,0
2016-09-26T03:00:48.997Z,0
2016-09-26T03:01:29.739Z,0
2016-09-26T03:02:10.444Z,0
2016-09-26T03:02:51.152Z,0
2016-09-26T03:03:31.901Z,0
2016-09-26T03:04:12.628Z,0
2016-09-26T03:04:53.376Z,0
2016-09-26T03:05:34.120Z,0
2016-09-26T03:06:14.852Z,0
2016-09-26T03:06:55.584Z,0
2016-09-26T03:07:36.283Z,0
2016-09-26T03:08:17.023Z,0
2016-09-26T03:08:57.759Z,0
2016-09-26T03:09:38.463Z,0
2016-09-26T03:10:19.241Z,0
2016-09-26T03:10:59.990Z,0
2016-09-26T03:11:40.700Z,0
2016-09-26T03:12:21.490Z,0
2016-09-26T03:13:02.177Z,0
2016-09-26T03:13:42.913Z,0
2016-09-26T03:14:23.598Z,0
2016-09-26T03:15:04.381Z,0
2016-09-26T03:15:45.131Z,0
2016-09-26T03:16:25.820Z,0
2016-09-26T03:17:06.555Z,0
2016-09-26T03:17:47.303Z,0
2016-09-26T03:18:28.039Z,0
2016-09-26T03:19:08.739Z,0
2016-09-26T03:19:49.542Z,0
2016-09-26T03:20:30.304Z,0
2016-09-26T03:21:11.031Z,0
2016-09-26T03:21:51.757Z,0
2016-09-26T03:22:32.479Z,0
2016-09-26T03:23:13.232Z,0
2016-09-26T03:23:53.973Z,0
2016-09-26T03:24:34.701Z,0
2016-09-26T03:25:15.412Z,0
2016-09-26T03:25:56.134Z,0
2016-09-26T03:26:36.957Z,0
2016-09-26T03:27:17.770Z,0
2016-09-26T03:27:58.561Z,0
2016-09-26T03:28:39.291Z,0
2016-09-26T03:29:20.027Z,0
2016-09-26T03:30:00.776Z,0
2016-09-26T03:30:41.561Z,0
2016-09-26T03:31:22.297Z,0
2016-09-26T03:32:02.990Z,0
2016-09-26T03:32:43.707Z,0
2016-09-26T03:33:24.449Z,0
2016-09-26T03:34:05.167Z,0
2016-09-26T03:34:45.952Z,0
2016-09-26T03:35:26.668Z,0
2016-09-26T03:36:07.434Z,0
2016-09-26T03:36:48.230Z,0
2016-09-26T03:37:29.021Z,0
2016-09-26T03:38:09.760Z,0
2016-09-26T03:38:50.459Z,0
2016-09-26T03:39:31.199Z,0
2016-09-26T03:40:11.890Z,0
2016-09-26T03:40:52.633Z,0
2016-09-26T03:41:33.370Z,0
2016-09-26T03:42:14.115Z,0
2016-09-26T03:42:54.821Z,0
2016-09-26T03:43:35.582Z,0
2016-09-26T03:44:16.375Z,0
2016-09-26T03:44:57.095Z,0
2016-09-26T03:45:37.794Z,0
2016-09-26T03:46:18.548Z,0
2016-09-26T03:46:59.262Z,0
2016-09-26T03:47:40.043Z,0
2016-09-26T03:48:20.795Z,0
2016-09-26T03:49:01.543Z,0
2016-09-26T03:49:42.281Z,0
2016-09-26T03:50:23.008Z,0
2016-09-26T03:51:03.765Z,0
2016-09-26T03:51:44.521Z,0
2016-09-26T03:52:25.287Z,0
2016-09-26T03:53:06.056Z,0
2016-09-26T03:53:46.751Z,0
2016-09-26T03:54:27.506Z,0
2016-09-26T03:55:08.236Z,0
2016-09-26T03:55:48.976Z,0
2016-09-26T03:56:29.636Z,0
2016-09-26T03:57:10.402Z,0
2016-09-26T03:57:51.060Z,0
2016-09-26T03:58:31.774Z,0
2016-09-26T03:59:12.516Z,0
2016-09-26T03:59:53.271Z,0
2016-09-26T04:00:33.983Z,0
2016-09-26T04:01:14.937Z,0
2016-09-26T04:01:55.763Z,0
2016-09-26T04:02:36.514Z,0
2016-09-26T04:03:17.252Z,0
2016-09-26T04:03:58.040Z,0
2016-09-26T04:04:38.725Z,0
2016-09-26T04:05:19.491Z,0
2016-09-26T04:06:00.222Z,0
2016-09-26T04:06:40.965Z,0
2016-09-26T04:07:21.964Z,0
2016-09-26T04:08:02.733Z,0
2016-09-26T04:08:43.481Z,0
2016-09-26T04:09:24.264Z,0
2016-09-26T04:10:04.971Z,0
2016-09-26T04:10:45.784Z,0
2016-09-26T04:11:26.497Z,0
2016-09-26T04:12:07.238Z,0
2016-09-26T04:12:47.949Z,0
2016-09-26T04:13:28.681Z,0
2016-09-26T04:14:09.465Z,0
2016-09-26T04:14:50.213Z,0
2016-09-26T04:15:30.911Z,0
2016-09-26T04:16:11.614Z,0
2016-09-26T04:16:52.384Z,0
2016-09-26T04:17:33.050Z,0
2016-09-26T04:18:13.934Z,0
2016-09-26T04:18:54.812Z,0
2016-09-26T04:19:35.486Z,0
2016-09-26T04:20:16.221Z,0
2016-09-26T04:20:56.970Z,0
2016-09-26T04:21:37.695Z,0
2016-09-26T04:22:18.532Z,0
2016-09-26T04:22:59.268Z,0
2016-09-26T04:23:40.017Z,0
2016-09-26T04:24:20.795Z,0
2016-09-26T04:25:01.578Z,0
2016-09-26T04:25:42.307Z,0
2016-09-26T04:26:23.082Z,0
2016-09-26T04:27:03.847Z,0
2016-09-26T04:27:44.609Z,0
2016-09-26T04:28:25.409Z,0
2016-09-26T04:29:06.147Z,0
2016-09-26T04:29:46.892Z,0
2016-09-26T04:30:27.663Z,0
2016-09-26T04:31:08.408Z,0
2016-09-26T04:31:49.166Z,0
2016-09-26T04:32:29.820Z,0
2016-09-26T04:33:10.541Z,0
2016-09-26T04:33:51.219Z,0
2016-09-26T04:34:31.996Z,0
2016-09-26T04:35:12.849Z,0
2016-09-26T04:35:53.601Z,0
2016-09-26T04:36:34.371Z,0
2016-09-26T04:37:15.138Z,0
2016-09-26T04:37:55.951Z,0
2016-09-26T04:38:36.711Z,0
2016-09-26T04:39:17.495Z,0
2016-09-26T04:39:58.207Z,0
2016-09-26T04:40:38.945Z,0
2016-09-26T04:41:19.630Z,0
2016-09-26T04:42:00.398Z,0
2016-09-26T04:42:41.116Z,0
2016-09-26T04:43:21.869Z,0
2016-09-26T04:44:02.656Z,0
2016-09-26T04:44:43.359Z,0
2016-09-26T04:45:24.043Z,0
2016-09-26T04:46:04.804Z,0
2016-09-26T04:46:45.578Z,0
2016-09-26T04:47:26.383Z,0
2016-09-26T04:48:07.127Z,0
2016-09-26T04:48:47.946Z,0
2016-09-26T04:49:28.819Z,0
2016-09-26T04:50:09.504Z,0
2016-09-26T04:50:50.213Z,0
2016-09-26T04:51:30.972Z,0
2016-09-26T04:52:11.702Z,0
2016-09-26T04:52:52.432Z,0
2016-09-26T04:53:33.174Z,0
2016-09-26T04:54:13.938Z,0
2016-09-26T04:54:54.698Z,0
2016-09-26T04:55:35.411Z,0
2016-09-26T04:56:16.159Z,0
2016-09-26T04:56:56.923Z,0
2016-09-26T04:57:37.684Z,0
2016-09-26T04:58:18.437Z,0
2016-09-26T04:58:59.195Z,0
2016-09-26T04:59:39.935Z,0
2016-09-26T05:00:20.664Z,24
2016-09-26T05:01:01.345Z,28
2016-09-26T05:01:42.093Z,32
2016-09-26T05:02:22.857Z,32
2016-09-26T05:03:03.585Z,32
2016-09-26T05:03:44.321Z,32
2016-09-26T05:04:25.047Z,32
2016-09-26T05:05:05.804Z,32
2016-09-26T05:05:46.517Z,32
2016-09-26T05:06:27.271Z,32
2016-09-26T05:07:08.020Z,32
2016-09-26T05:07:48.711Z,32
2016-09-26T05:08:29.411Z,32
2016-09-26T05:09:10.146Z,32
2016-09-26T05:09:50.889Z,32
2016-09-26T05:10:31.622Z,32
2016-09-26T05:11:12.358Z,32
2016-09-26T05:11:53.130Z,32
2016-09-26T05:12:33.892Z,32
2016-09-26T05:13:14.609Z,32
2016-09-26T05:13:55.377Z,32
2016-09-26T05:14:36.069Z,32
2016-09-26T05:15:16.845Z,32
2016-09-26T05:15:57.551Z,32
2016-09-26T05:16:38.316Z,32
2016-09-26T05:17:19.160Z,32
2016-09-26T05:17:59.866Z,32
2016-09-26T05:18:40.665Z,32
2016-09-26T05:19:21.433Z,32
2016-09-26T05:20:02.168Z,32
2016-09-26T05:20:42.893Z,32
2016-09-26T05:21:23.675Z,32
2016-09-26T05:22:04.417Z,32
2016-09-26T05:22:45.192Z,32
2016-09-26T05:23:25.927Z,32
2016-09-26T05:24:06.707Z,32
2016-09-26T05:24:47.381Z,32
2016-09-26T05:25:28.090Z,32
2016-09-26T05:26:08.811Z,32
2016-09-26T05:26:49.512Z,32
2016-09-26T05:27:30.292Z,32
2016-09-26T05:28:11.077Z,32
2016-09-26T05:28:51.872Z,32
2016-09-26T05:29:32.533Z,32
2016-09-26T05:30:13.242Z,32
2016-09-26T05:30:54.027Z,32
2016-09-26T05:31:34.734Z,32
2016-09-26T05:32:15.485Z,32
2016-09-26T05:32:56.238Z,32
2016-09-26T05:33:36.972Z,32
2016-09-26T05:34:17.676Z,32
2016-09-26T05:34:58.404Z,32
2016-09-26T05:35:39.106Z,32
2016-09-26T05:36:19.800Z,32
2016-09-26T05:37:00.458Z,32
2016-09-26T05:37:41.162Z,32
2016-09-26T05:38:21.809Z,32
2016-09-26T05:39:02.500Z,32
2016-09-26T05:39:43.184Z,32
2016-09-26T05:40:23.833Z,32
2016-09-26T05:41:04.536Z,32
2016-09-26T05:41:45.193Z,32
2016-09-26T05:42:25.928Z,32
2016-09-26T05:43:06.588Z,32
2016-09-26T05:43:47.293Z,32
2016-09-26T05:44:28.022Z,32
2016-09-26T05:45:08.675Z,32
2016-09-26T05:45:49.361Z,32
2016-09-26T05:46:30.023Z,36
2016-09-26T05:47:10.709Z,32
2016-09-26T05:47:51.384Z,32
2016-09-26T05:48:32.091Z,32
2016-09-26T05:49:12.793Z,32
2016-09-26T05:49:53.525Z,32
2016-09-26T05:50:34.196Z,36
2016-09-26T05:51:14.899Z,36
2016-09-26T05:51:55.619Z,36
2016-09-26T05:52:36.315Z,32
2016-09-26T05:53:17.019Z,32
2016-09-26T05:53:57.725Z,32
2016-09-26T05:54:38.453Z,32
2016-09-26T05:55:19.101Z,32
2016-09-26T05:55:59.776Z,36
2016-09-26T05:56:40.469Z,36
2016-09-26T05:57:21.174Z,36
2016-09-26T05:58:01.874Z,32
2016-09-26T05:58:42.584Z,36
2016-09-26T05:59:23.271Z,36
2016-09-26T06:00:03.981Z,4
2016-09-26T06:00:44.702Z,8
2016-09-26T06:01:25.405Z,4
2016-09-26T06:02:06.103Z,4
2016-09-26T06:02:46.805Z,8
2016-09-26T06:03:27.476Z,4
2016-09-26T06:04:08.158Z,4
2016-09-26T06:04:48.855Z,8
2016-09-26T06:05:29.575Z,8
2016-09-26T06:06:10.293Z,8
2016-09-26T06:06:51.019Z,8
2016-09-26T06:07:31.712Z,12
2016-09-26T06:08:12.408Z,8
2016-09-26T06:08:53.136Z,12
2016-09-26T06:09:33.829Z,12
2016-09-26T06:10:14.573Z,12
2016-09-26T06:10:55.279Z,12
2016-09-26T06:11:35.966Z,12
2016-09-26T06:12:16.727Z,12
2016-09-26T06:12:57.416Z,16
2016-09-26T06:13:38.127Z,12
2016-09-26T06:14:18.821Z,16
2016-09-26T06:14:59.573Z,16
2016-09-26T06:15:40.273Z,16
2016-09-26T06:16:20.942Z,16
2016-09-26T06:17:01.687Z,16
2016-09-26T06:17:42.415Z,16
2016-09-26T06:18:23.097Z,16
2016-09-26T06:19:03.818Z,20
2016-09-26T06:19:44.481Z,20
2016-09-26T06:20:25.191Z,20
2016-09-26T06:21:05.886Z,24
2016-09-26T06:21:46.579Z,20
2016-09-26T06:22:27.338Z,24
2016-09-26T06:23:08.065Z,24
2016-09-26T06:23:48.757Z,20
2016-09-26T06:24:29.497Z,24
2016-09-26T06:25:10.196Z,24
2016-09-26T06:25:50.884Z,28
2016-09-26T06:26:31.583Z,28
2016-09-26T06:27:12.279Z,28
2016-09-26T06:27:53.047Z,28
2016-09-26T06:28:33.770Z,28
2016-09-26T06:29:14.507Z,28
2016-09-26T06:29:55.238Z,32
2016-09-26T06:30:35.935Z,28
2016-09-26T06:31:16.611Z,32
2016-09-26T06:31:57.317Z,32
2016-09-26T06:32:38.016Z,32
2016-09-26T06:33:18.730Z,32
2016-09-26T06:34:00.068Z,32
2016-09-26T06:34:40.842Z,32
2016-09-26T06:35:21.524Z,28
2016-09-26T06:36:02.255Z,32
2016-09-26T06:36:42.994Z,32
2016-09-26T06:37:23.657Z,32
2016-09-26T06:38:04.383Z,32
2016-09-26T06:38:45.142Z,32
2016-09-26T06:39:25.804Z,32
2016-09-26T06:40:06.534Z,36
2016-09-26T06:40:47.316Z,32
2016-09-26T06:41:27.999Z,36
2016-09-26T06:42:08.759Z,36
2016-09-26T06:42:50.015Z,36
2016-09-26T06:43:30.190Z,36
2016-09-26T06:44:10.877Z,40
2016-09-26T06:44:51.582Z,36
2016-09-26T06:45:32.287Z,36
2016-09-26T06:46:12.989Z,36
2016-09-26T06:46:53.689Z,40
2016-09-26T06:47:34.357Z,36
2016-09-26T06:48:15.061Z,40
2016-09-26T06:48:55.801Z,40
2016-09-26T06:49:36.496Z,40
2016-09-26T06:50:17.229Z,44
2016-09-26T06:50:58.561Z,44
2016-09-26T06:51:39.341Z,44
2016-09-26T06:52:20.073Z,44
2016-09-26T06:53:00.777Z,44
2016-09-26T06:53:41.512Z,44
2016-09-26T06:54:22.207Z,44
2016-09-26T06:55:03.515Z,48
2016-09-26T06:55:43.584Z,48
2016-09-26T06:56:24.280Z,48
2016-09-26T06:57:05.003Z,48
2016-09-26T06:57:45.721Z,48
2016-09-26T06:58:26.439Z,48
2016-09-26T06:59:07.207Z,52
2016-09-26T06:59:47.922Z,48
2016-09-26T07:00:28.657Z,52
2016-09-26T07:01:09.381Z,52
2016-09-26T07:01:50.149Z,52
2016-09-26T07:02:30.814Z,56
2016-09-26T07:03:12.524Z,52
2016-09-26T07:03:53.297Z,56
2016-09-26T07:04:34.008Z,56
2016-09-26T07:05:14.710Z,56
2016-09-26T07:05:55.470Z,56
2016-09-26T07:06:36.161Z,56
2016-09-26T07:07:16.880Z,60
2016-09-26T07:07:57.587Z,60
2016-09-26T07:08:38.294Z,60
2016-09-26T07:09:18.999Z,60
2016-09-26T07:09:59.690Z,64
2016-09-26T07:10:40.408Z,64
2016-09-26T07:11:21.144Z,64
2016-09-26T07:12:01.825Z,68
2016-09-26T07:12:42.529Z,68
2016-09-26T07:13:23.219Z,68
2016-09-26T07:14:03.902Z,72
2016-09-26T07:14:44.612Z,72
2016-09-26T07:15:25.358Z,416
2016-09-26T07:16:06.063Z,488
2016-09-26T07:16:46.775Z,508
2016-09-26T07:17:27.480Z,512
2016-09-26T07:18:08.704Z,516
2016-09-26T07:18:49.427Z,512
2016-09-26T07:19:30.138Z,512
2016-09-26T07:20:10.793Z,508
2016-09-26T07:20:51.516Z,508
2016-09-26T07:21:32.211Z,508
2016-09-26T07:22:12.881Z,504
2016-09-26T07:22:53.610Z,500
2016-09-26T07:23:35.029Z,504
2016-09-26T07:24:14.972Z,504
2016-09-26T07:24:55.655Z,500
2016-09-26T07:25:36.367Z,500
2016-09-26T07:26:18.095Z,504
2016-09-26T07:26:59.543Z,504
2016-09-26T07:27:39.486Z,500
2016-09-26T07:28:20.155Z,500
2016-09-26T07:29:00.953Z,500
2016-09-26T07:29:41.651Z,500
2016-09-26T07:30:23.033Z,500
2016-09-26T07:31:03.055Z,500
2016-09-26T07:31:43.805Z,500
2016-09-26T07:32:25.048Z,496
2016-09-26T07:33:05.209Z,496
2016-09-26T07:33:45.910Z,496
2016-09-26T07:34:26.687Z,500
2016-09-26T07:35:07.378Z,496
2016-09-26T07:35:48.085Z,496
2016-09-26T07:36:29.546Z,496
2016-09-26T07:37:09.474Z,496
2016-09-26T07:37:50.178Z,496
2016-09-26T07:38:30.873Z,492
2016-09-26T07:39:11.596Z,492
2016-09-26T07:39:52.322Z,492
2016-09-26T07:40:32.983Z,492
2016-09-26T07:41:13.634Z,496
2016-09-26T07:41:54.355Z,496
2016-09-26T07:42:35.125Z,496
2016-09-26T07:43:15.784Z,496
2016-09-26T07:43:56.521Z,496
2016-09-26T07:44:38.142Z,500
2016-09-26T07:45:19.549Z,488
2016-09-26T07:45:59.523Z,500
2016-09-26T07:46:40.237Z,496
2016-09-26T07:47:20.962Z,496
2016-09-26T07:48:01.812Z,496
2016-09-26T07:48:42.470Z,492
2016-09-26T07:49:24.048Z,492
2016-09-26T07:50:04.829Z,496
2016-09-26T07:50:45.550Z,488
2016-09-26T07:51:26.263Z,492
2016-09-26T07:52:07.020Z,492
2016-09-26T07:52:47.780Z,488
2016-09-26T07:53:28.470Z,488
2016-09-26T07:54:09.194Z,488
2016-09-26T07:54:49.921Z,488
2016-09-26T07:55:30.611Z,488
2016-09-26T07:56:11.335Z,488
2016-09-26T07:56:52.000Z,488
2016-09-26T07:57:32.713Z,488
2016-09-26T07:58:13.400Z,484
2016-09-26T07:58:54.075Z,484
2016-09-26T07:59:34.807Z,484
2016-09-26T08:00:16.125Z,484
2016-09-26T08:00:56.826Z,488
2016-09-26T08:01:37.552Z,488
2016-09-26T08:02:19.052Z,488
2016-09-26T08:02:58.988Z,492
2016-09-26T08:03:39.682Z,492
2016-09-26T08:04:20.428Z,492
2016-09-26T08:05:01.162Z,496
2016-09-26T08:05:41.830Z,496
2016-09-26T08:06:22.556Z,500
2016-09-26T08:07:03.304Z,504
2016-09-26T08:07:44.687Z,504
2016-09-26T08:08:25.381Z,504
2016-09-26T08:09:06.136Z,508
2016-09-26T08:09:46.898Z,508
2016-09-26T08:10:27.617Z,512
2016-09-26T08:11:08.409Z,512
2016-09-26T08:11:49.102Z,512
2016-09-26T08:12:29.871Z,516
2016-09-26T08:13:10.604Z,516
2016-09-26T08:13:51.342Z,516
2016-09-26T08:14:32.110Z,520
2016-09-26T08:15:12.859Z,520
2016-09-26T08:15:53.537Z,520
2016-09-26T08:16:34.291Z,520
2016-09-26T08:17:15.000Z,516
2016-09-26T08:17:55.681Z,520
2016-09-26T08:18:36.399Z,516
2016-09-26T08:19:17.147Z,520
2016-09-26T08:19:57.916Z,516
2016-09-26T08:20:38.581Z,516
2016-09-26T08:21:19.280Z,512
2016-09-26T08:22:00.565Z,512
2016-09-26T08:22:40.682Z,508
2016-09-26T08:23:21.401Z,508
2016-09-26T08:24:02.092Z,504
2016-09-26T08:24:42.795Z,504
2016-09-26T08:25:23.513Z,504
2016-09-26T08:26:04.290Z,504
2016-09-26T08:26:45.011Z,504
2016-09-26T08:27:25.762Z,504
2016-09-26T08:28:06.477Z,504
2016-09-26T08:28:47.193Z,508
2016-09-26T08:29:27.970Z,508
2016-09-26T08:30:08.712Z,504
2016-09-26T08:30:49.446Z,508
2016-09-26T08:31:30.168Z,512
2016-09-26T08:32:10.873Z,508
2016-09-26T08:32:51.583Z,512
2016-09-26T08:33:32.311Z,512
2016-09-26T08:34:12.987Z,512
2016-09-26T08:34:53.697Z,512
2016-09-26T08:35:34.422Z,512
2016-09-26T08:36:15.153Z,516
2016-09-26T08:36:55.910Z,516
2016-09-26T08:37:36.629Z,516
2016-09-26T08:38:17.334Z,516
2016-09-26T08:38:58.042Z,516
2016-09-26T08:39:38.778Z,520
2016-09-26T08:40:19.475Z,520
2016-09-26T08:41:00.172Z,520
2016-09-26T08:41:40.858Z,520
2016-09-26T08:42:21.612Z,524
2016-09-26T08:43:02.288Z,520
2016-09-26T08:43:42.991Z,524
2016-09-26T08:44:23.755Z,524
2016-09-26T08:45:04.455Z,520
2016-09-26T08:45:45.133Z,524
2016-09-26T08:46:25.824Z,524
2016-09-26T08:47:06.575Z,520
2016-09-26T08:47:47.306Z,524
2016-09-26T08:48:27.995Z,524
2016-09-26T08:49:08.668Z,524
2016-09-26T08:49:49.355Z,524
2016-09-26T08:50:30.044Z,524
2016-09-26T08:51:10.768Z,524
2016-09-26T08:51:51.489Z,456
2016-09-26T08:52:32.159Z,476
2016-09-26T08:53:12.897Z,484
2016-09-26T08:53:53.595Z,484
2016-09-26T08:54:34.364Z,488
2016-09-26T08:55:15.127Z,492
2016-09-26T08:55:55.880Z,492
2016-09-26T08:56:36.644Z,500
2016-09-26T08:57:17.323Z,496
2016-09-26T08:57:58.034Z,496
2016-09-26T08:58:38.745Z,500
2016-09-26T08:59:19.470Z,504
2016-09-26T09:00:00.229Z,504
2016-09-26T09:00:40.957Z,500
2016-09-26T09:01:21.709Z,504
2016-09-26T09:02:02.558Z,504
2016-09-26T09:02:43.332Z,504
2016-09-26T09:03:24.072Z,508
2016-09-26T09:04:04.810Z,508
2016-09-26T09:04:45.538Z,512
2016-09-26T09:05:26.245Z,508
2016-09-26T09:06:06.951Z,508
2016-09-26T09:06:47.694Z,512
2016-09-26T09:07:28.466Z,512
2016-09-26T09:08:09.176Z,512
2016-09-26T09:08:49.932Z,508
2016-09-26T09:09:30.598Z,508
2016-09-26T09:10:11.338Z,504
2016-09-26T09:10:52.067Z,508
2016-09-26T09:11:32.760Z,508
2016-09-26T09:12:13.438Z,496
2016-09-26T09:12:54.144Z,496
2016-09-26T09:13:34.861Z,496
2016-09-26T09:14:15.589Z,492
2016-09-26T09:14:56.271Z,492
2016-09-26T09:15:36.997Z,496
2016-09-26T09:16:17.719Z,492
2016-09-26T09:16:58.475Z,492
2016-09-26T09:17:39.227Z,492
2016-09-26T09:18:19.944Z,488
2016-09-26T09:19:00.630Z,488
2016-09-26T09:19:41.376Z,488
2016-09-26T09:20:22.098Z,484
2016-09-26T09:21:02.834Z,484
2016-09-26T09:21:44.181Z,484
2016-09-26T09:22:24.850Z,484
2016-09-26T09:23:05.535Z,480
2016-09-26T09:23:46.283Z,476
2016-09-26T09:24:26.996Z,476
2016-09-26T09:25:07.695Z,480
2016-09-26T09:25:48.403Z,480
2016-09-26T09:26:29.102Z,480
2016-09-26T09:27:09.770Z,452
2016-09-26T09:27:50.495Z,448
2016-09-26T09:28:31.224Z,464
2016-09-26T09:29:11.950Z,464
2016-09-26T09:29:52.677Z,464
2016-09-26T09:30:33.393Z,460
2016-09-26T09:31:14.089Z,460
2016-09-26T09:31:54.832Z,464
2016-09-26T09:32:35.522Z,444
2016-09-26T09:33:17.106Z,444
2016-09-26T09:33:56.926Z,444
2016-09-26T09:34:37.716Z,456
2016-09-26T09:35:18.508Z,440
2016-09-26T09:35:59.235Z,444
2016-09-26T09:36:39.969Z,440
2016-09-26T09:37:20.686Z,436
2016-09-26T09:38:01.506Z,452
2016-09-26T09:38:42.316Z,452
2016-09-26T09:39:23.112Z,444
2016-09-26T09:40:03.814Z,448
2016-09-26T09:40:44.480Z,452
2016-09-26T09:41:25.211Z,448
2016-09-26T09:42:05.938Z,452
2016-09-26T09:42:46.629Z,452
2016-09-26T09:43:27.314Z,452
2016-09-26T09:44:07.965Z,448
2016-09-26T09:44:48.646Z,448
2016-09-26T09:45:29.352Z,456
2016-09-26T09:46:10.105Z,456